Latest Weather Observations for Warburton

IDD60801

Issued at 8:31 am CST Tuesday 23 December 2014 (issued every 30 minutes, with the page automatically refreshed every 10 minutes)

About weather observations | Map of weather stations | Latest weather observations for NT | Other Formats
Station Details ID: 013011 Name: WARBURTON AIRFIELD Lat: -26.13 Lon: 126.58 Height: 459.0 m
Data from the previous 72 hours. | See also: Recent months at Warburton
Date/Time
CST
Temp
°C
App
Temp
°C
Dew
Point
Rel
Hum
%
Delta-T
°C
Wind Press
QNH
hPa
Press
MSL
hPa
Rain
since 9 am
mm
Dir
 
Spd
km/h
Gust
km/h
Spd
kts
Gust
kts
23/08:30am 21.3 16.3 13.5 61 4.6 SE 32 41 17 22 1017.4 - 0.2
23/08:00am 20.7 16.1 13.6 64 4.2 ESE 30 41 16 22 1017.0 - 0.2
23/07:30am 20.7 17.0 13.9 65 4.0 SE 26 35 14 19 1016.6 1013.3 0.2
23/07:00am 19.9 16.6 14.0 69 3.5 SE 24 32 13 17 1016.0 - 0.2
23/06:30am 19.6 17.2 14.4 72 3.1 SE 20 32 11 17 1015.9 - 0.2
23/06:00am 19.7 17.5 14.5 72 3.1 SE 19 28 10 15 1015.5 - 0.2
23/05:30am 19.7 17.6 14.7 73 3.0 SE 19 24 10 13 1015.2 - 0.2
23/05:00am 19.7 18.5 15.1 75 2.8 SSE 15 22 8 12 1014.9 - 0.2
23/04:30am 19.9 18.3 15.1 74 2.9 SSE 17 24 9 13 1014.8 1011.4 0.2
23/04:00am 20.3 19.1 15.1 72 3.1 SSE 15 26 8 14 1014.6 - 0.2
23/03:30am 20.6 19.0 14.9 70 3.4 SSE 17 24 9 13 1014.2 - 0.2
23/03:00am 21.0 20.5 14.9 68 3.7 SE 11 13 6 7 1013.9 - 0.2
23/02:30am 21.3 20.7 14.5 65 4.1 SE 11 15 6 8 1014.2 - 0.2
23/02:00am 21.7 20.3 14.6 64 4.3 ESE 15 19 8 10 1014.1 - 0.2
23/01:30am 22.0 20.6 14.6 63 4.4 ESE 15 20 8 11 1014.4 1011.1 0.2
23/01:00am 22.4 21.1 14.8 62 4.6 ESE 15 20 8 11 1014.4 - 0.2
23/12:30am 22.5 21.6 14.9 62 4.6 ESE 13 20 7 11 1014.4 - 0.2
23/12:00am 23.0 21.7 14.8 60 5.0 ESE 15 22 8 12 1014.3 - 0.2
 
Date/Time
CST
Temp
°C
App
Temp
°C
Dew
Point
Rel
Hum
%
Delta-T
°C
Wind Press
QNH
hPa
Press
MSL
hPa
Rain
since 9 am
mm
Dir
 
Spd
km/h
Gust
km/h
Spd
kts
Gust
kts
22/11:30pm 23.5 21.8 14.8 58 5.3 ESE 17 24 9 13 1014.4 - 0.2
22/11:00pm 23.9 21.9 14.9 57 5.5 SE 19 26 10 14 1014.2 - 0.2
22/10:30pm 24.2 22.6 14.9 56 5.7 SE 17 22 9 12 1013.8 1010.5 0.2
22/10:00pm 24.6 21.9 14.7 54 6.0 SE 22 28 12 15 1013.4 - 0.2
22/09:30pm 25.0 22.8 15.0 53 6.1 SE 20 30 11 16 1013.0 - 0.2
22/09:00pm 25.7 23.3 15.4 53 6.4 SE 22 30 12 16 1012.6 - 0.2
22/08:30pm 26.1 24.6 15.2 51 6.7 SSE 17 28 9 15 1012.0 - 0.2
22/08:00pm 26.9 24.8 15.3 49 7.2 SSE 20 32 11 17 1011.5 - 0.2
22/07:30pm 27.7 25.5 15.0 45 7.9 S 20 28 11 15 1011.3 1008.0 0.2
22/07:00pm 28.4 26.0 15.3 45 8.2 SSE 22 28 12 15 1011.0 - 0.2
22/06:30pm 28.5 25.7 15.4 45 8.2 SE 24 37 13 20 1010.9 - 0.2
22/06:00pm 28.5 25.7 15.4 45 8.2 S 24 32 13 17 1011.0 - 0.2
22/05:30pm 28.6 27.0 16.5 48 7.7 SE 20 33 11 18 1011.2 - 0.2
22/05:00pm 28.6 27.1 16.8 48 7.5 SE 20 28 11 15 1011.4 - 0.2
22/04:30pm 28.7 27.3 16.9 48 7.5 SE 20 33 11 18 1011.8 1008.5 0.2
22/04:00pm 27.6 26.8 17.2 53 6.6 SSE 17 28 9 15 1012.4 - 0.2
22/03:30pm 27.8 27.3 17.9 54 6.4 SSE 17 24 9 13 1012.7 - 0.2
22/03:00pm 26.0 24.9 17.4 59 5.5 SSE 19 26 10 14 1013.0 - 0.2
22/02:30pm 26.1 24.8 18.2 61 5.1 SSE 22 33 12 18 1013.1 - 0.0
22/02:00pm 25.3 24.0 18.2 64 4.6 SSE 22 32 12 17 1013.4 - 0.0
22/01:30pm 24.7 24.2 18.6 69 3.9 S 19 28 10 15 1013.8 1010.5 0.0
22/01:00pm 24.3 24.1 18.5 70 3.7 SE 17 26 9 14 1014.2 - 0.0
22/12:30pm 23.3 22.5 18.4 74 3.1 SSE 20 32 11 17 1014.4 - 0.0
22/12:00pm 23.5 23.0 19.0 76 2.9 SSE 20 26 11 14 1014.8 - 0.0
22/11:30am 22.6 21.6 18.8 79 2.4 SSE 22 32 12 17 1014.7 - 0.0
22/11:00am 22.5 21.7 19.3 82 2.1 S 22 30 12 16 1014.4 - 0.0
22/10:30am 22.4 21.7 19.6 84 1.8 SSE 22 32 12 17 1014.1 1010.8 0.0
22/10:00am 22.2 20.7 19.4 84 1.8 S 26 33 14 18 1013.7 - 0.0
22/09:30am 23.2 22.9 19.1 78 2.7 SSE 19 28 10 15 1013.8 - 0.0
22/09:00am 22.8 21.9 19.0 79 2.5 SSE 22 28 12 15 1013.6 - 0.0
22/08:30am 22.3 22.0 19.5 84 1.8 SSE 20 28 11 15 1013.5 - 0.0
22/08:00am 22.1 22.0 20.0 88 1.4 SSE 20 26 11 14 1013.0 - 0.0
22/07:30am 22.7 23.6 20.0 85 1.8 SSE 15 20 8 11 1012.5 1009.1 0.0
22/07:00am 22.5 23.8 20.2 87 1.5 SSE 13 20 7 11 1012.0 - 0.0
22/06:30am 22.4 24.6 21.2 93 0.8 SSE 11 15 6 8 1011.6 - 0.0
22/06:00am 22.2 24.8 21.9 98 0.2 SSE 11 19 6 10 1010.9 - 0.0
22/05:30am 22.0 23.7 21.7 98 0.2 S 15 20 8 11 1010.3 - 0.0
22/05:00am 21.9 24.0 21.7 99 0.1 S 13 19 7 10 1010.1 - 0.0
22/04:30am 21.9 24.0 21.7 99 0.1 S 13 19 7 10 1009.5 1006.2 0.0
22/04:00am 22.0 23.3 21.7 98 0.2 SSW 17 22 9 12 1009.7 - 0.0
22/03:30am 22.2 24.8 21.9 98 0.2 S 11 13 6 7 1010.1 - 0.0
22/03:00am 22.3 24.9 22.0 98 0.2 SSW 11 15 6 8 1010.7 - 0.0
22/02:30am 22.8 26.4 22.3 97 0.3 WSW 7 9 4 5 1010.6 - 0.0
22/02:00am 23.1 27.3 21.7 92 0.9 WSW 2 7 1 4 1011.1 - 0.0
22/01:30am 23.3 27.8 21.6 90 1.1 CALM 0 0 0 0 1011.0 1007.6 0.0
22/01:00am 23.3 26.5 21.2 88 1.4 SSE 6 9 3 5 1010.8 - 0.0
22/12:30am 23.3 26.1 20.8 86 1.7 ENE 7 9 4 5 1010.8 - 0.0
22/12:00am 23.4 25.9 21.1 87 1.5 E 9 13 5 7 1010.8 - 0.0
 
Date/Time
CST
Temp
°C
App
Temp
°C
Dew
Point
Rel
Hum
%
Delta-T
°C
Wind Press
QNH
hPa
Press
MSL
hPa
Rain
since 9 am
mm
Dir
 
Spd
km/h
Gust
km/h
Spd
kts
Gust
kts
21/11:30pm 23.4 25.8 20.9 86 1.7 ENE 9 13 5 7 1010.9 - 0.0
21/11:00pm 23.0 23.6 21.1 89 1.3 S 19 24 10 13 1010.5 - 0.0
21/10:30pm 23.4 25.1 21.7 90 1.1 S 15 24 8 13 1009.6 1006.3 0.0
21/10:00pm 22.9 24.1 20.6 87 1.5 ESE 15 26 8 14 1010.2 - 0.0
21/09:30pm 22.2 21.7 20.7 91 1.0 SE 24 32 13 17 1009.5 - 0.0
21/09:00pm 23.1 22.3 20.8 87 1.5 SW 26 32 14 17 1010.8 - 0.0
21/08:30pm 25.6 18.3 17.5 61 5.2 WSW 52 76 28 41 1010.3 - 0.0
21/08:26pm 27.0 18.6 16.6 53 6.6 WSW 56 76 30 41 1009.7 - 0.0
21/08:24pm 30.7 27.8 17.0 43 8.8 W 28 65 15 35 1008.8 - 0.0
21/08:00pm 32.2 32.0 17.7 42 9.5 NNW 15 20 8 11 1007.1 - 0.0
21/07:30pm 32.7 31.4 16.9 38 10.2 N 19 28 10 15 1006.5 1003.1 0.0
21/07:00pm 33.5 32.0 16.8 36 10.8 N 20 26 11 14 1006.2 - 0.0
21/06:30pm 34.3 32.7 16.6 34 11.4 NNW 20 28 11 15 1006.0 - 0.0
21/06:00pm 34.8 33.0 16.1 32 12.0 NW 20 28 11 15 1006.4 - 0.0
21/05:30pm 34.4 33.7 16.3 34 11.7 N 15 24 8 13 1006.6 - 0.0
21/05:00pm 33.6 32.3 17.3 37 10.6 N 20 30 11 16 1007.0 - 0.0
21/04:30pm 34.2 33.0 17.4 36 11.0 NNW 20 24 11 13 1007.7 1004.3 0.0
21/04:00pm 34.6 32.4 16.9 35 11.5 N 24 30 13 16 1008.3 - 0.0
21/03:30pm 33.3 32.7 17.5 39 10.3 NNW 17 28 9 15 1008.7 - 0.0
21/03:00pm 33.3 31.9 16.6 36 10.8 NW 19 28 10 15 1009.0 - 0.0
21/02:30pm 32.9 31.6 16.7 38 10.4 NNW 19 26 10 14 1009.3 - 0.0
21/02:00pm 32.3 32.4 17.4 41 9.7 N 13 20 7 11 1009.5 - 0.0
21/01:30pm 32.1 31.0 16.4 39 10.1 NW 17 26 9 14 1009.8 1006.5 0.0
21/01:00pm 31.3 31.8 18.3 46 8.5 NNW 13 20 7 11 1010.2 - 0.0
21/12:30pm 30.6 30.4 17.7 46 8.4 NW 15 19 8 10 1010.6 - 0.0
21/12:00pm 30.4 30.0 18.8 50 7.6 NW 19 24 10 13 1011.1 - 0.0
21/11:30am 30.4 30.2 19.7 52 7.1 NW 20 28 11 15 1011.5 - 0.0
21/11:00am 29.5 29.3 19.8 56 6.5 NW 20 26 11 14 1011.8 - 0.0
21/10:30am 28.2 28.5 19.7 60 5.6 NNW 17 24 9 13 1012.0 1008.7 14.0
21/10:00am 27.1 26.6 19.2 62 5.2 NNW 20 26 11 14 1011.9 - 14.0
21/09:30am 25.8 26.4 19.4 67 4.2 N 15 20 8 11 1011.8 - 14.0
21/09:00am 24.9 25.8 19.3 71 3.7 NNW 13 19 7 10 1012.0 - 14.0
21/08:30am 24.7 25.9 19.8 74 3.2 N 13 19 7 10 1011.9 - 14.0
21/08:00am 23.7 26.9 20.4 82 2.2 NW 4 13 2 7 1012.0 - 14.0
21/07:30am 23.0 26.4 20.1 84 1.9 WNW 2 9 1 5 1011.9 1008.6 14.0
21/07:00am 22.3 24.8 20.2 88 1.4 W 7 15 4 8 1011.7 - 14.0
21/06:30am 21.7 23.0 20.2 91 1.0 NW 13 19 7 10 1010.9 - 14.0
21/06:00am 21.6 22.7 20.4 93 0.8 WNW 15 19 8 10 1010.9 - 14.0
21/05:30am 22.5 24.3 19.5 83 2.0 WNW 9 20 5 11 1010.4 - 14.0
21/05:00am 22.4 25.5 19.6 84 1.8 NE 2 11 1 6 1009.5 - 14.0
21/04:30am 22.1 24.3 19.5 85 1.7 ENE 7 13 4 7 1010.5 1007.1 14.0
21/04:00am 21.3 21.9 21.0 98 0.2 NE 19 28 10 15 1010.2 - 14.0
21/03:42am 20.6 19.3 20.6 100 0.0 NE 28 39 15 21 1009.7 - 14.0
21/03:30am 20.6 22.1 20.6 100 0.0 ENE 13 19 7 10 1011.7 - 13.8
21/03:00am 20.5 22.7 20.5 100 0.0 NNW 9 13 5 7 1013.2 - 13.4
21/02:30am 20.3 20.5 20.1 99 0.1 W 19 24 10 13 1013.8 - 11.2
21/02:00am 20.3 18.7 20.1 99 0.1 W 28 39 15 21 1013.8 - 7.8
21/01:30am 19.8 17.6 19.5 98 0.2 WSW 30 44 16 24 1013.5 1010.2 5.0
21/01:00am 21.0 19.3 20.5 97 0.3 SW 30 46 16 25 1013.5 - 0.2
21/12:30am 22.7 16.8 18.9 79 2.4 SW 48 67 26 36 1013.5 - 0.0
21/12:18am 23.7 16.8 18.4 72 3.4 WSW 52 80 28 43 1013.0 - 0.0
21/12:12am 26.5 24.0 18.9 63 5.0 W 30 70 16 38 1012.3 - 0.0
21/12:00am 28.2 30.6 20.0 61 5.5 N 7 11 4 6 1010.6 - 0.0
 
Date/Time
CST
Temp
°C
App
Temp
°C
Dew
Point
Rel
Hum
%
Delta-T
°C
Wind Press
QNH
hPa
Press
MSL
hPa
Rain
since 9 am
mm
Dir
 
Spd
km/h
Gust
km/h
Spd
kts
Gust
kts
20/11:30pm 28.4 30.5 19.3 57 6.0 N 7 9 4 5 1010.4 - 0.0
20/11:00pm 29.2 30.3 18.9 53 6.8 N 11 15 6 8 1010.1 - 0.0
20/10:30pm 29.4 29.7 18.8 53 7.0 N 15 22 8 12 1009.4 1006.1 0.0
20/10:00pm 29.8 29.8 18.9 52 7.2 N 17 20 9 11 1009.2 - 0.0
20/09:30pm 30.1 31.0 19.2 52 7.2 N 13 19 7 10 1009.2 - 0.0
20/09:00pm 30.5 30.5 18.9 50 7.7 N 17 20 9 11 1008.7 - 0.0
20/08:30pm 30.9 30.6 18.3 47 8.3 N 17 24 9 13 1008.4 - 0.0
20/08:00pm 31.2 30.9 18.2 46 8.5 N 17 24 9 13 1008.2 - 0.0
20/07:30pm 31.8 31.2 18.4 45 8.8 N 19 26 10 14 1008.2 1004.8 0.0
20/07:00pm 32.3 32.1 18.5 44 9.1 N 17 26 9 14 1008.4 - 0.0
20/06:30pm 32.6 32.0 18.8 44 9.1 N 20 30 11 16 1008.5 - 0.0
20/06:00pm 33.3 32.8 17.9 40 10.1 NNW 17 24 9 13 1008.8 - 0.0
20/05:30pm 32.5 32.2 18.3 43 9.3 N 17 28 9 15 1009.1 - 0.0
20/05:00pm 32.4 30.9 18.6 44 9.1 N 24 32 13 17 1009.4 - 0.0
20/04:30pm 33.4 32.0 18.7 41 9.8 NNW 24 30 13 16 1010.1 1006.7 0.0
20/04:00pm 33.5 32.9 17.6 38 10.4 N 17 26 9 14 1010.3 - 0.0
20/03:30pm 34.2 32.6 17.4 36 11.0 N 22 32 12 17 1010.5 - 0.0
20/03:00pm 33.3 31.5 17.0 37 10.6 N 22 35 12 19 1010.8 - 0.0
20/02:30pm 33.3 32.3 16.6 36 10.8 N 17 28 9 15 1011.4 - 0.0
20/02:00pm 32.0 31.4 16.7 40 9.8 NNW 15 22 8 12 1012.1 - 0.0
20/01:30pm 31.4 30.7 17.3 43 9.1 NW 17 24 9 13 1012.7 1009.3 0.0
20/01:00pm 30.4 30.4 18.2 48 8.0 NNW 15 22 8 12 1013.0 - 0.0
20/12:30pm 30.0 29.4 18.4 49 7.6 NW 19 26 10 14 1013.3 - 0.0
20/12:00pm 29.1 30.2 20.5 59 5.8 N 15 24 8 13 1013.5 - 0.0
20/11:30am 28.1 28.8 19.6 60 5.6 N 15 20 8 11 1014.0 - 0.0
20/11:00am 27.9 27.9 20.2 63 5.1 NNE 20 28 11 15 1014.6 - 0.0
20/10:30am 27.6 28.7 19.7 62 5.2 NNE 13 19 7 10 1014.6 1011.2 6.0

Other Formats:

Comma delimited format used in spreadsheet applications
http://www.bom.gov.au/fwo/IDD60801/IDD60801.94457.axf

JavaScript Object Notation format (JSON) in row-major order
http://www.bom.gov.au/fwo/IDD60801/IDD60801.94457.json